Burdock, South Dakota
Current Conditions -  °F | °C
As of 3:53 AM on Monday 20 Oct 2014 (Local Time) from KCUT Reporting Station
Clear Clear  
Wind Chill: 34°   Ceiling: Unl
Heat Index: 38°   Visibility: 10mi
Dew Point: 33°   Wind: 5mph
Humidity: 83%   Direction: 280°W
Pressure: 30.15"   Gusts: NA
Location:  43.1994°N, 103.759°W
Report Text: KCUT 200953Z AUTO 28004KT 10SM CLR 03/01 A3015 RMK AO2 SLP172 T00330006
Loading
Personal Weather Stations






























Interactive Weather Map
Tropical Storm Tracking
New forecast layout! Learn more

10-Day Weather Forecast

Advertisements
Track Severe Weather on mobile